Don Torcuato, Argentina

7:33 PM ART on January 29, 2015 (GMT -0300)
El clima en la UNGS | Change Station
CLOSE
Current Station
Personal Weather Station
Location: Los Polvorines, BUENOS AIRES
Elevation: 33 ft
Nearby Weather Stations

Elev 33 ft 34.52 °S, 58.70 °W | Updated 14 seconds ago

Clear
Clear
71.2 °F
Feels Like 76 °F
N
4.5
Wind Variable Wind from SE
Gusts 7.4 mph

Today
High -- | Low -- °F
--% Chance of Precip.
Yesterday
High -- | Low -- °F
Precip. -- in
6:11 AM 8:02 PM
Waxing Gibbous, 77% visible
Pressure 30.06 in
Visibility -9999.0 miles
Clouds
Heat Index 76 °F
Dew Point 58 °F
Humidity 62%
Rainfall 0.00 in
Snow Depth Not available.
UV 1.0 out of 12
Pollen Not available.
Air Quality Not available.
Flu Activity Not available.
METAR SADF 292200Z 07010KT 020V120 CAVOK 23/13 Q1018

More Conditions Fewer Conditions

Pressure 30.06 in
Visibility -9999.0 miles
Clouds
Heat Index 76 °F
Dew Point 58 °F
Humidity 62%
Rainfall 0.00 in
Snow Depth Not available.
UV 1.0 out of 12
Pollen Not available.
Air Quality Not available.
Flu Activity Not available.
METAR SADF 292200Z 07010KT 020V120 CAVOK 23/13 Q1018

More Conditions Fewer Conditions

10-Day Weather Forecast

Almanac

Astronomy

Jan. 29, 2015 Rise Set
Actual Time
Civil Twilight
Nautical Twilight
Astronomical Twilight
Moon
Length of Visible Light
Length of Day
Tomorrow will be .
, % of the Moon is Illuminated

Today's Extremes

Country Highs Country Lows

Community

WunderPhotos

Upload Photos

1,791,632 photos uploaded!

WunderBlogs® & News

Nearby

Air Quality

  Air Quality AQ Index Pollutant
Not available.

Snow Depth

Station Depth Elevation

Earthquake Activity

City Distance Mag. Time & Date
Minimum magnitude displayed is 2.5.

Coastal Water Temperatures

Place Temperature

Nearby Weather Stations